Logo AVAMET
Benvolgut visitant, si us plau, ingressa Recuperar contrasenya

Inforatge Catarroja Ajuntament

Dades diàries. Acumulats / Últims 30 dies disponibles

Data Temperatura (°C) Humitat rel. (%) Pressió rel. (hPa) Vent (km/h) Precipitació
Mínima Mitjana Màxima Amplitud
tèrmica
Mínima Mitjana Màxima Mínima Mitjana Màxima Predom. Mitjana Ràfega
màxima
Total
(mm)
Índex-n
Mínima Mitjana Màxima Mínima Mitjana Màxima n
0 a 1
P0 max
mm 5'
Dades mensuals acumulades fins l'últim dia disponible
11/2019 8,8 13,9 20,9 17,5 17,4 21,7 28,8 20,0 24 50 76 1.001 1.012 1.021   13,8 64,4 0,0
Dades anuals acumulades fins l'últim dia disponible
2019 1,2 15,4 27,2 19,5 11,7 23,9 41,4 40,2 15 66 97 993 1.017 1.036   6,7 72,4 253,4
Últims 30 dies disponibles
12-11-2019 11,1     15,2     20,1 9,0 30 41 52 1.010 1.012 1.014 WNW 8,0 45,1 0,0
11-11-2019 8,8     13,9     18,7 9,9 34 47 56 1.011 1.013 1.015 WNW 11,3 51,5 0,0
10-11-2019 10,4     14,1     17,4 7,0 32 46 68 1.011 1.013 1.015 WNW 10,6 46,7 0,0
09-11-2019 10,7     14,9     19,0 8,3 35 45 63 1.014 1.017 1.020 WSW 16,3 45,1 0,0
08-11-2019 9,9     13,6     17,6 7,7 33 46 59 1.010 1.013 1.017 WSW 15,3 54,7 0,0
07-11-2019 13,1     16,4     21,9 8,8 24 51 65 1.007 1.010 1.013 WSW 12,4 51,5 0,0
06-11-2019 12,3     16,6     22,2 9,9 30 49 64 1.012 1.013 1.014 WSW 8,4 30,6 0,0
05-11-2019 14,8     17,6     20,2 5,4 36 50 64 1.005 1.009 1.013 W 16,4 64,4 0,0
04-11-2019 17,8     20,7     23,9 6,1 41 52 65 1.006 1.009 1.011 WSW 18,5 64,4 0,0
03-11-2019 18,9     21,2     24,1 5,2 28 49 70 1.001 1.005 1.011 WSW 20,9 64,4 0,0
02-11-2019 20,9     23,1     26,4 5,5 41 58 68 1.004 1.009 1.014 WSW 16,7 48,3 0,0
01-11-2019 18,1     23,0     28,8 10,7 43 63 76 1.014 1.017 1.021 WSW 10,3 41,8 0,0
31-10-2019 19,4     22,5     27,6 8,2 40 61 77 1.019 1.020 1.021 SO 5,8 25,7 0,0
30-10-2019 14,8     19,6     26,3 11,5 46 74 89 1.019 1.020 1.022 WNW 2,4 14,5 0,0
29-10-2019 14,2     18,3     24,2 10,0 55 81 92 1.016 1.017 1.020 WNW 2,3 16,1 0,0
28-10-2019 14,1     17,5     21,8 7,7 68 83 90 1.016 1.018 1.021 WSW 1,6 12,9 0,0
27-10-2019 13,9     17,7     22,1 8,2 62 82 91 1.020 1.022 1.023 WNW 3,4 16,1 0,0
26-10-2019 12,6     17,5     22,5 9,9 59 76 88 1.020 1.022 1.023 WNW 2,7 14,5 0,0
25-10-2019 13,6     17,9     23,8 10,2 40 64 80 1.021 1.022 1.023 WSW 4,8 19,3 0,0
24-10-2019 11,8     16,7     22,8 11,0 39 52 72 1.012 1.018 1.022 WSW 7,9 25,7 0,0
23-10-2019 12,3     14,9     19,0 6,7 47 66 80 1.006 1.008 1.010 WSW 10,8 43,5 0,0
22-10-2019 13,1     14,1     16,1 3,0 70 83 92 1.006 1.011 1.018 WNW 7,7 32,2 21,6
21-10-2019 11,9     15,8     20,7 8,8 41 63 78 1.017 1.018 1.019 WSW 6,6 29,0 0,0
20-10-2019 14,8     18,1     20,2 5,4 WSW 7,4 51,5 2,6
19-10-2019 18,9     22,2     28,1 9,2 WSW 7,9 37,0 0,0
18-10-2019 18,6     22,4     27,9 9,3 53 63 72 1.016 1.017 1.018 WSW 8,0 33,8 0,0
17-10-2019 16,1     21,1     27,3 11,2 30 45 68 1.015 1.017 1.018 WSW 9,7 38,6 0,0
16-10-2019 13,8     19,4     26,2 12,4 26 42 54 1.016 1.019 1.021 WSW 6,9 32,2 0,0
15-10-2019 14,4     19,2     25,3 10,9 26 45 65 1.014 1.018 1.020 WSW 11,1 43,5 0,0
14-10-2019 19,6     21,9     23,8 4,2 45 81 89 1.011 1.014 1.017 WNW 5,0 48,3 0,8
Últims 13 mesos disponibles
10/2019 11,8 16,4 20,5 20,3 16,1 25,1 34,9 23,1 42 67 83 1.008 1.017 1.022 WNW 5,5 51,5 25,0
09/2019 15,4 20,4 24,1 23,9 21,8 27,5 33,9 18,5 40 72 84 1.010 1.018 1.025 SSE 6,0 56,3 94,6
08/2019 18,4 22,7 27,2 26,5 27,1 30,4 41,4 23,0 43 71 79 1.011 1.016 1.021 SSE 5,6 55,6 10,6
07/2019 21,4 23,0 25,3 26,8 27,7 30,6 37,6 16,2 48 68 77 1.006 1.014 1.021 SSE 6,1 56,3 6,8
06/2019 12,9 18,3 22,8 22,7 21,4 26,7 33,7 20,8 38 66 79 1.009 1.016 1.022 SE 6,2 59,6 0,0
05/2019 9,1 14,7 20,9 18,8 18,8 23,0 32,3 23,2 49 67 82 1.005 1.016 1.025 SSE 6,7 56,3 18,0
04/2019 8,8 11,6 14,3 15,5 15,4 19,9 30,3 21,5 41 66 95 1.000 1.013 1.025 SSE 8,8 63,0 85,2
03/2019 6,1 8,3 10,6 13,5 13,3 18,4 22,6 16,5 52 63 84 1.016 1.024 1.028 SSO 5,3 38,9 13,2
02/2019 3,9 7,3 10,9 12,0 12,7 17,7 25,3 21,4 35 65 78 995 1.025 1.034 SSO 6,4 72,4 0,0
01/2019 1,2 6,3 12,6 10,9 11,7 16,6 20,7 19,5 43 60 79 1.002 1.019 1.031 OSO 6,9 62,9 0,0
12/2018 4,8 9,3 14,0 13,0 13,3 18,1 23,1 18,3 56 69 87 1.009 1.025 1.031 O 5,9 50,0 11,4
11/2018 6,7 11,6 15,6 14,7 14,8 18,6 23,8 17,1 52 73 93 1.002 1.015 1.024 O 6,2 64,8 110,4
10/2018 7,1 15,0 18,8 18,6 14,4 22,7 27,7 20,6 47 72 91 1.001 1.015 1.026 5,4 57,9 183,2
Tots els anys disponibles
2018 2,4 14,7 25,6 18,5 8,7 22,7 36,2 33,8 40 68 93 993 1.016 1.033 S 6,8 88,8 812,8
2017 0,4 14,4 26,0 18,5 9,2 22,8 36,2 35,8 31 68 90 997 1.019 1.036 SSO 5,3 88,8 340,4
Temperatura (°C)
Humitat relativa (%)
Velocitat del vent i ràfega màxima (km/h)
Direcció del vent (°)
Pressió (hPa)
Precipitació (mm)
Nota sobre les dades: s'avisa a l'usuari de la provisionalitat i no oficialitat d'aquestes dades
Logo AVAMET blanc
Web allotjada a Sollutia
Llicència de Creative CommonsLa web d'AVAMET i els seus continguts estan subjectes a una llicència de
Reconeixement - No Comercial - Compartir igual
Últimes estacions: Xàbia - Alt de la Granadella (Soci), Villena - Sierra de Salinas (Soci), Sueca - Centre (Inforatge), Xàbia - La Plana (Soci), Banyeres de Mariola - Molí Sol (Soci), Villena - Villa Ventín (Soci), Benissa - Convent (Soci), - - -